Latest Weather Observations for Legendre Island

IDW60801

Issued at 10:05 pm WST Wednesday 1 October 2014 (issued every 30 minutes, with the page automatically refreshed every 10 minutes)

About weather observations | Map of weather stations | Latest weather observations for WA | Other Formats
Station Details ID: 004095 Name: LEGENDRE ISLAND Lat: -20.36 Lon: 116.84 Height: 29.0 m
Data from the previous 72 hours. | See also: Recent months for locations in Western Australia
Date/Time
WST
Temp
°C
App
Temp
°C
Dew
Point
Rel
Hum
%
Delta-T
°C
Wind Press
QNH
hPa
Press
MSL
hPa
Rain
since 9 am
mm
Dir
 
Spd
km/h
Gust
km/h
Spd
kts
Gust
kts
01/10:00pm 24.4 20.9 19.5 74 3.1 SW 37 46 20 25 1013.1 1013.0 -
01/09:30pm 24.6 20.7 18.8 70 3.7 SW 37 46 20 25 1013.1 1013.0 -
01/09:00pm 24.4 20.6 19.0 72 3.4 WSW 37 43 20 23 1013.1 1013.0 -
01/08:30pm 24.4 21.5 20.1 77 2.8 WSW 35 41 19 22 1013.0 1012.9 -
01/08:00pm 24.6 21.6 19.9 75 3.0 WSW 35 46 19 25 1012.7 1012.6 -
01/07:30pm 24.8 21.8 19.8 74 3.2 WSW 35 44 19 24 1012.3 1012.2 -
01/07:00pm 24.9 22.1 19.5 72 3.5 WSW 33 41 18 22 1012.0 1011.9 -
01/06:30pm 25.1 22.0 19.7 72 3.5 WSW 35 43 19 23 1011.5 1011.4 -
01/06:00pm 25.4 22.6 19.5 70 3.8 WSW 33 41 18 22 1011.3 1011.2 -
01/05:30pm 25.9 22.5 19.1 66 4.4 WSW 35 41 19 22 1011.3 1011.2 -
01/05:00pm 26.4 23.1 18.3 61 5.1 WSW 33 41 18 22 1011.4 1011.3 -
01/04:30pm 26.9 23.0 17.9 57 5.7 WSW 35 43 19 23 1011.5 1011.4 -
01/04:00pm 27.3 24.1 18.6 59 5.6 WSW 33 39 18 21 1011.6 1011.5 -
01/03:30pm 27.9 24.5 17.7 53 6.5 WSW 32 39 17 21 1011.7 1011.6 -
01/03:00pm 28.9 25.8 17.4 49 7.3 W 30 39 16 21 1011.7 1011.6 -
01/02:30pm 29.5 25.2 17.0 47 7.9 W 35 43 19 23 1012.0 1011.9 -
01/02:00pm 29.7 26.3 16.8 45 8.1 W 30 37 16 20 1012.3 1012.2 -
01/01:30pm 30.2 27.5 16.6 44 8.5 W 26 33 14 18 1012.7 1012.6 -
01/01:00pm 30.7 28.6 15.2 39 9.5 WSW 20 26 11 14 1013.0 1012.9 -
01/12:30pm 31.2 30.1 16.4 41 9.3 WSW 17 20 9 11 1013.4 1013.3 -
01/12:00pm 30.6 29.3 15.8 40 9.2 WSW 17 22 9 12 1013.8 1013.7 -
01/11:30am 30.7 27.5 11.1 30 11.3 WSW 19 22 10 12 1014.2 1014.1 -
01/11:00am 30.1 27.4 13.0 35 10.1 WSW 19 22 10 12 1014.8 1014.7 -
01/10:30am 30.2 27.0 11.2 31 11.0 SW 19 22 10 12 1015.1 1015.0 -
01/10:00am 29.2 26.5 13.0 37 9.6 SW 19 22 10 12 1015.0 1014.9 -
01/09:30am 29.7 26.6 12.2 34 10.2 SSW 20 26 11 14 1014.9 1014.8 -
01/09:00am 28.8 26.4 13.9 40 8.9 SSW 19 24 10 13 1015.2 1015.1 -
01/08:30am 28.0 25.6 12.8 39 8.9 S 17 22 9 12 1015.0 1014.9 -
01/08:00am 25.9 23.5 14.4 49 6.9 SSW 20 24 11 13 1014.8 1014.7 -
01/07:30am 24.7 23.4 16.9 62 4.8 SSW 19 24 10 13 1014.4 1014.3 -
01/07:00am 23.7 22.4 17.2 67 4.0 SSW 20 24 11 13 1013.7 1013.6 -
01/06:30am 22.6 20.6 17.5 73 3.2 SSW 24 30 13 16 1013.3 1013.2 -
01/06:00am 22.1 19.8 17.5 75 2.8 SSW 26 32 14 17 1013.1 1013.0 -
01/05:30am 22.4 19.6 18.2 77 2.6 SW 30 35 16 19 1012.7 1012.6 -
01/05:00am 22.4 19.2 18.6 79 2.4 SSW 33 39 18 21 1012.4 1012.3 -
01/04:30am 22.6 19.2 19.0 80 2.3 SSW 35 44 19 24 1011.9 1011.8 -
01/04:00am 23.1 19.2 18.8 77 2.7 SW 37 44 20 24 1011.8 1011.7 -
01/03:30am 22.9 19.1 18.0 74 3.1 SW 35 43 19 23 1011.8 1011.7 -
01/03:00am 22.9 19.4 18.7 77 2.7 SW 35 43 19 23 1011.8 1011.7 -
01/02:30am 22.6 20.0 21.4 93 0.8 SW 37 44 20 24 1011.9 1011.8 -
01/02:00am 22.9 22.0 22.2 96 0.5 SW 30 39 16 21 1012.3 1012.2 -
01/01:30am 23.0 21.5 21.8 93 0.8 SW 32 41 17 22 1012.3 1012.2 -
01/01:00am 23.0 22.1 21.5 91 1.0 SW 28 35 15 19 1012.6 1012.5 -
01/12:30am 23.0 22.0 20.5 86 1.6 SW 26 33 14 18 1013.0 1012.9 -
01/12:00am 23.0 21.2 20.3 85 1.7 SW 30 37 16 20 1013.1 1013.0 -
 
Date/Time
WST
Temp
°C
App
Temp
°C
Dew
Point
Rel
Hum
%
Delta-T
°C
Wind Press
QNH
hPa
Press
MSL
hPa
Rain
since 9 am
mm
Dir
 
Spd
km/h
Gust
km/h
Spd
kts
Gust
kts
30/11:30pm 23.1 21.6 20.2 84 1.9 WSW 28 37 15 20 1013.1 1013.0 -
30/11:00pm 23.1 22.2 21.5 91 1.1 WSW 28 33 15 18 1013.5 1013.4 -
30/10:30pm 23.2 22.2 22.0 93 0.8 WSW 30 33 16 18 1014.0 1013.9 -
30/10:00pm 23.2 22.6 22.0 93 0.8 WSW 28 32 15 17 1014.2 1014.1 -
30/09:30pm 23.2 23.9 22.2 94 0.7 SW 22 28 12 15 1014.2 1014.1 -
30/09:00pm 23.2 23.7 22.0 93 0.8 WSW 22 26 12 14 1014.2 1014.1 -
30/08:30pm 23.1 24.0 21.9 93 0.8 WSW 20 24 11 13 1014.3 1014.2 -
30/08:00pm 23.4 24.4 22.2 93 0.8 W 20 22 11 12 1014.0 1013.9 -
30/07:30pm 23.5 24.8 21.6 89 1.3 W 17 20 9 11 1013.7 1013.6 -
30/07:00pm 23.6 24.4 20.7 84 1.9 WSW 17 19 9 10 1013.3 1013.2 -
30/06:30pm 24.0 24.4 19.9 78 2.6 WSW 17 19 9 10 1013.0 1012.9 -
30/06:00pm 24.8 24.9 19.2 71 3.6 W 17 20 9 11 1012.6 1012.5 -
30/05:30pm 25.8 25.8 19.0 66 4.4 WSW 17 20 9 11 1012.4 1012.3 -
30/05:00pm 26.3 25.8 18.7 63 4.9 WSW 19 24 10 13 1011.8 1011.7 -
30/04:30pm 27.0 25.7 17.2 55 6.1 WSW 20 26 11 14 1011.7 1011.6 -
30/04:00pm 27.2 26.4 18.5 59 5.6 WSW 20 26 11 14 1011.6 1011.5 -
30/03:30pm 27.1 26.6 20.7 68 4.2 WSW 24 28 13 15 1011.6 1011.5 -
30/03:00pm 26.9 26.4 20.0 66 4.5 WSW 22 26 12 14 1011.6 1011.5 -
30/02:30pm 27.9 27.2 19.4 60 5.5 WSW 22 26 12 14 1011.8 1011.7 -
30/02:00pm 28.2 27.3 18.3 55 6.3 WSW 20 24 11 13 1011.9 1011.8 -
30/01:30pm 28.4 27.9 19.1 57 6.0 WSW 20 24 11 13 1012.2 1012.1 -
30/01:00pm 28.0 27.4 18.4 56 6.1 WSW 19 22 10 12 1012.6 1012.5 -
30/12:30pm 28.9 28.8 18.7 54 6.6 WSW 17 22 9 12 1012.9 1012.8 -
30/12:00pm 28.8 29.0 19.4 56 6.1 WSW 17 20 9 11 1013.5 1013.4 -
30/11:30am 29.0 28.2 16.2 46 7.9 SW 15 19 8 10 1013.8 1013.7 -
30/11:00am 27.8 27.7 18.8 58 5.8 SW 17 22 9 12 1014.1 1014.0 -
30/10:30am 27.5 26.9 18.5 58 5.8 SW 19 22 10 12 1014.3 1014.2 -
30/10:00am 26.5 26.0 18.6 62 5.0 WSW 19 24 10 13 1014.4 1014.3 -
30/09:30am 26.5 25.7 18.4 61 5.2 WSW 20 24 11 13 1014.4 1014.3 -
30/09:00am 26.1 25.5 18.8 64 4.7 WSW 20 24 11 13 1014.3 1014.2 -
30/08:30am 25.5 24.5 17.9 63 4.8 WSW 20 24 11 13 1014.2 1014.1 -
30/08:00am 25.0 24.1 17.7 64 4.6 WSW 19 22 10 12 1014.0 1013.9 -
30/07:30am 24.3 24.0 18.2 68 3.8 WSW 17 22 9 12 1013.9 1013.8 -
30/07:00am 23.4 23.0 18.1 72 3.3 SW 17 19 9 10 1013.6 1013.5 -
30/06:30am 22.1 21.7 18.1 78 2.5 WSW 17 20 9 11 1013.4 1013.3 -
30/06:00am 21.4 20.6 17.2 77 2.6 WSW 17 19 9 10 1013.3 1013.2 -
30/05:30am 21.8 20.8 16.7 73 3.1 WSW 17 19 9 10 1013.1 1013.0 -
30/05:00am 22.0 20.5 16.7 72 3.2 SW 20 24 11 13 1012.8 1012.7 -
30/04:30am 22.1 20.8 16.8 72 3.2 SW 19 20 10 11 1012.7 1012.6 -
30/04:00am 22.2 19.8 16.5 70 3.5 SW 24 26 13 14 1012.4 1012.3 -
30/03:30am 22.4 19.7 16.7 70 3.5 SW 26 30 14 16 1012.4 1012.3 -
30/03:00am 22.6 20.0 16.9 70 3.5 SW 26 32 14 17 1012.4 1012.3 -
30/02:30am 22.6 20.9 16.2 67 3.9 SW 20 26 11 14 1012.4 1012.3 -
30/02:00am 22.9 20.7 16.9 69 3.7 SSW 24 28 13 15 1012.4 1012.3 -
30/01:30am 23.1 20.6 17.1 69 3.7 SW 26 32 14 17 1012.5 1012.4 -
30/01:00am 23.4 20.6 17.4 69 3.7 SW 28 33 15 18 1012.7 1012.6 -
30/12:30am 23.4 19.8 17.2 68 3.8 SW 32 35 17 19 1012.8 1012.7 -
30/12:00am 23.3 21.8 18.6 75 3.0 SW 24 30 13 16 1013.1 1013.0 -
 
Date/Time
WST
Temp
°C
App
Temp
°C
Dew
Point
Rel
Hum
%
Delta-T
°C
Wind Press
QNH
hPa
Press
MSL
hPa
Rain
since 9 am
mm
Dir
 
Spd
km/h
Gust
km/h
Spd
kts
Gust
kts
29/11:30pm 23.4 21.5 18.5 74 3.1 SW 26 32 14 17 1013.3 1013.2 -
29/11:00pm 23.3 21.8 18.6 75 3.0 SW 24 28 13 15 1013.6 1013.5 -
29/10:30pm 23.3 21.9 18.8 76 2.9 SW 24 30 13 16 1014.0 1013.9 -
29/10:00pm 23.3 21.8 19.5 79 2.4 SW 26 33 14 18 1014.1 1014.0 -
29/09:30pm 23.4 21.4 19.1 77 2.7 SW 28 33 15 18 1014.2 1014.1 -
29/09:00pm 23.4 21.7 18.9 76 2.9 SW 26 32 14 17 1014.2 1014.1 -
29/08:30pm 23.5 21.1 19.0 76 2.9 WSW 30 35 16 19 1014.0 1013.9 -
29/08:00pm 23.7 22.1 19.2 76 2.9 WSW 26 32 14 17 1013.8 1013.7 -
29/07:30pm 23.7 22.7 18.8 74 3.1 SW 22 28 12 15 1013.7 1013.6 -
29/07:00pm 23.7 23.3 18.8 74 3.1 SW 19 24 10 13 1013.4 1013.3 -
29/06:30pm 23.9 22.7 18.3 71 3.5 SW 22 28 12 15 1013.1 1013.0 -
29/06:00pm 24.4 23.2 18.3 69 3.8 WSW 22 30 12 16 1012.7 1012.6 -
29/05:30pm 25.2 23.4 17.9 64 4.6 WSW 24 32 13 17 1012.4 1012.3 -
29/05:00pm 25.8 23.4 18.2 63 4.8 WSW 28 35 15 19 1012.0 1011.9 -
29/04:30pm 26.2 23.8 18.3 61 5.0 WSW 28 33 15 18 1012.0 1011.9 -
29/04:00pm 26.4 23.5 18.0 60 5.3 WSW 30 37 16 20 1011.9 1011.8 -
29/03:30pm 26.7 23.4 18.0 59 5.5 WSW 32 37 17 20 1011.7 1011.6 -
29/03:00pm 27.2 24.5 18.5 59 5.6 WSW 30 37 16 20 1011.8 1011.7 -
29/02:30pm 27.6 24.9 19.7 62 5.1 WSW 33 41 18 22 1011.8 1011.7 -
29/02:00pm 27.3 24.4 18.0 56 5.9 WSW 30 37 16 20 1012.1 1012.0 -
29/01:30pm 27.4 25.2 17.8 55 6.1 W 26 32 14 17 1012.7 1012.6 -
29/01:00pm 28.3 26.9 18.7 56 6.2 WSW 24 28 13 15 1013.0 1012.9 -
29/12:30pm 27.3 25.8 17.8 56 6.0 WSW 22 28 12 15 1013.3 1013.2 -
29/12:00pm 27.6 26.6 18.9 59 5.6 WSW 22 26 12 14 1013.4 1013.3 -
29/11:30am 27.5 25.0 16.1 49 7.0 WSW 24 30 13 16 1013.6 1013.5 -
29/11:00am 27.4 25.4 16.4 51 6.8 SW 22 28 12 15 1014.1 1014.0 -
29/10:30am 27.4 25.2 17.0 53 6.5 WSW 24 28 13 15 1014.3 1014.2 -
29/10:00am 26.3 24.1 16.8 56 5.9 WSW 24 28 13 15 1014.5 1014.4 -
29/09:30am 25.7 24.0 17.1 59 5.4 WSW 22 26 12 14 1014.5 1014.4 -
29/09:00am 24.8 22.6 17.0 62 4.8 SW 24 28 13 15 1014.4 1014.3 -
29/08:30am 24.4 21.9 17.1 63 4.5 SW 26 30 14 16 1014.2 1014.1 -
29/08:00am 24.1 21.6 17.1 65 4.3 SW 26 30 14 16 1014.1 1014.0 -
29/07:30am 23.5 21.6 17.7 70 3.6 SW 24 28 13 15 1014.0 1013.9 -
29/07:00am 22.9 21.9 18.9 78 2.5 SW 22 26 12 14 1013.7 1013.6 -
29/06:30am 22.1 21.2 19.1 83 1.9 SW 22 26 12 14 1013.3 1013.2 -
29/06:00am 21.7 21.1 18.9 84 1.8 SW 20 24 11 13 1013.3 1013.2 -
29/05:30am 21.7 21.1 18.9 84 1.8 SW 20 24 11 13 1013.0 1012.9 -
29/05:00am 21.8 21.2 18.8 83 1.9 SW 20 24 11 13 1012.8 1012.7 -
29/04:30am 22.1 21.1 18.9 82 2.0 SW 22 28 12 15 1012.7 1012.6 -
29/04:00am 22.1 20.5 19.1 83 1.9 SW 26 30 14 16 1012.5 1012.4 -
29/03:30am 22.3 20.6 19.7 85 1.7 SW 28 33 15 18 1012.3 1012.2 -
29/03:00am 22.3 20.8 20.2 88 1.4 SSW 28 33 15 18 1012.3 1012.2 -
29/02:30am 22.5 21.2 20.6 89 1.2 SSW 28 33 15 18 1012.7 1012.6 -
29/02:00am 22.6 20.5 20.5 88 1.4 SSW 32 41 17 22 1012.7 1012.6 -
29/01:30am 22.7 20.7 20.8 89 1.2 SW 32 39 17 21 1012.9 1012.8 -
29/01:00am 22.6 20.7 20.9 90 1.1 SW 32 37 17 20 1013.2 1013.1 -
29/12:30am 22.6 21.6 21.2 92 0.9 SW 28 35 15 19 1013.5 1013.4 -
29/12:00am 22.6 21.7 21.4 93 0.8 SW 28 32 15 17 1013.8 1013.7 -
 
Date/Time
WST
Temp
°C
App
Temp
°C
Dew
Point
Rel
Hum
%
Delta-T
°C
Wind Press
QNH
hPa
Press
MSL
hPa
Rain
since 9 am
mm
Dir
 
Spd
km/h
Gust
km/h
Spd
kts
Gust
kts
28/11:30pm 22.8 21.9 21.4 92 0.9 SW 28 35 15 19 1014.0 1013.9 -
28/11:00pm 22.9 22.1 21.7 93 0.8 SW 28 33 15 18 1014.3 1014.2 -
28/10:30pm 23.0 21.8 21.6 92 0.9 SW 30 33 16 18 1014.4 1014.3 -

Other Formats:

Comma delimited format used in spreadsheet applications
http://www.bom.gov.au/fwo/IDW60801/IDW60801.94307.axf

JavaScript Object Notation format (JSON) in row-major order
http://www.bom.gov.au/fwo/IDW60801/IDW60801.94307.json